Time;durP1;ratioP1;P1;durP2;ratioP2;P2;SDS_P1;SDS_P2;PMS_P1;PMS_P2;Temp;Humidity;BMP_temperature;BMP_pressure;BME280_temperature;BME280_humidity;BME280_pressure;Samples;Min_cycle;Max_cycle;Signal;HPM_P1;HPM_P2
2022/07/07 00:02:13;;;;;;;9.48;8.88;;;;;;;;;;5045749;28;20031;-63
2022/07/07 00:04:38;;;;;;;10.02;9.43;;;;;;;;;;5047455;28;20138;-63
2022/07/07 00:07:04;;;;;;;9.18;8.57;;;;;;;;;;5045099;28;20364;-62
2022/07/07 00:09:30;;;;;;;8.65;8.10;;;;;;;;;;5045984;28;20333;-63
2022/07/07 00:11:56;;;;;;;10.25;9.65;;;;;;;;;;5045860;28;20028;-63
2022/07/07 00:14:21;;;;;;;8.57;8.05;;;;;;;;;;5045557;28;20032;-63
2022/07/07 00:16:46;;;;;;;9.40;8.80;;;;;;;;;;5045001;28;20120;-63
2022/07/07 00:19:12;;;;;;;7.95;7.45;;;;;;;;;;5044843;28;20110;-63
2022/07/07 00:21:37;;;;;;;8.90;8.30;;;;;;;;;;5045479;28;20150;-63
2022/07/07 00:24:03;;;;;;;8.40;7.90;;;;;;;;;;5045609;28;20119;-63
2022/07/07 00:26:30;;;;;;;8.38;7.68;;;;;;;;;;5045708;28;20112;-63
2022/07/07 00:28:55;;;;;;;9.07;8.35;;;;;;;;;;5045457;28;20060;-62
2022/07/07 00:31:21;;;;;;;7.80;7.30;;;;;;;;;;5044292;28;20025;-63
2022/07/07 00:33:46;;;;;;;8.15;7.65;;;;;;;;;;5045133;28;20028;-64
2022/07/07 00:36:11;;;;;;;7.10;6.60;;;;;;;;;;5044696;28;20033;-65
2022/07/07 00:38:37;;;;;;;7.85;7.25;;;;;;;;;;5045447;28;20520;-64
2022/07/07 00:41:02;;;;;;;6.93;6.43;;;;;;;;;;5044792;28;20111;-64
2022/07/07 00:43:35;;;;;;;8.73;8.13;;;;;;;;;;5044308;28;20493;-64
2022/07/07 00:46:01;;;;;;;7.68;7.18;;;;;;;;;;5044847;28;20120;-64
2022/07/07 00:48:27;;;;;;;7.43;6.93;;;;;;;;;;5045056;28;20138;-64
2022/07/07 00:50:52;;;;;;;7.53;7.03;;;;;;;;;;5044031;28;20111;-65
2022/07/07 00:53:18;;;;;;;6.85;6.35;;;;;;;;;;5044098;28;20514;-65
2022/07/07 00:55:43;;;;;;;7.65;7.15;;;;;;;;;;5044814;28;20143;-64
2022/07/07 00:58:09;;;;;;;7.53;7.03;;;;;;;;;;5044770;28;20052;-64
2022/07/07 01:00:34;;;;;;;7.78;7.18;;;;;;;;;;5044329;28;20067;-64
2022/07/07 01:03:00;;;;;;;7.07;6.57;;;;;;;;;;5043213;28;20059;-64
2022/07/07 01:05:26;;;;;;;8.00;7.50;;;;;;;;;;5044053;28;20182;-65
2022/07/07 01:07:53;;;;;;;7.25;6.75;;;;;;;;;;5044720;28;20048;-65
2022/07/07 01:10:18;;;;;;;7.10;6.60;;;;;;;;;;5045012;28;20039;-64
2022/07/07 01:12:44;;;;;;;7.00;6.50;;;;;;;;;;5044526;28;20033;-64
2022/07/07 01:15:13;;;;;;;7.82;7.32;;;;;;;;;;5044991;28;20031;-64
2022/07/07 01:17:39;;;;;;;7.03;6.53;;;;;;;;;;5043323;28;20036;-64
2022/07/07 01:20:06;;;;;;;6.65;6.20;;;;;;;;;;5042855;28;20037;-64
2022/07/07 01:22:34;;;;;;;7.93;7.38;;;;;;;;;;5043983;28;20142;-64
2022/07/07 01:25:00;;;;;;;6.80;6.30;;;;;;;;;;5043706;28;20054;-64
2022/07/07 01:27:26;;;;;;;6.82;6.32;;;;;;;;;;5043395;28;20032;-65
2022/07/07 01:29:54;;;;;;;6.95;6.47;;;;;;;;;;5044890;28;20759;-64
2022/07/07 01:32:21;;;;;;;7.43;6.93;;;;;;;;;;5043563;28;20115;-64
2022/07/07 01:34:48;;;;;;;7.30;6.80;;;;;;;;;;5043102;28;20720;-64
2022/07/07 01:37:14;;;;;;;8.43;7.82;;;;;;;;;;5044613;28;20033;-64
2022/07/07 01:39:40;;;;;;;6.88;6.38;;;;;;;;;;5043473;28;20121;-64
2022/07/07 01:42:06;;;;;;;7.05;6.55;;;;;;;;;;5043424;28;21340;-64
2022/07/07 01:44:33;;;;;;;7.78;7.28;;;;;;;;;;5044134;28;20114;-64
2022/07/07 01:46:58;;;;;;;7.18;6.68;;;;;;;;;;5044181;28;20466;-64
2022/07/07 01:49:25;;;;;;;6.60;6.10;;;;;;;;;;5043618;28;20041;-64
2022/07/07 01:51:51;;;;;;;6.90;6.40;;;;;;;;;;5042984;28;20033;-64
2022/07/07 01:54:16;;;;;;;6.85;6.35;;;;;;;;;;5043822;28;20028;-64
2022/07/07 01:56:41;;;;;;;7.32;6.82;;;;;;;;;;5042899;28;20067;-63
2022/07/07 01:59:08;;;;;;;7.25;6.75;;;;;;;;;;5043457;28;20033;-63
2022/07/07 02:01:34;;;;;;;6.80;6.30;;;;;;;;;;5043301;28;20033;-63
2022/07/07 02:04:00;;;;;;;7.07;6.57;;;;;;;;;;5043562;28;20525;-63
2022/07/07 02:06:25;;;;;;;6.90;6.40;;;;;;;;;;5043878;28;20033;-64
2022/07/07 02:08:50;;;;;;;7.45;6.95;;;;;;;;;;5043005;28;20116;-64
2022/07/07 02:11:16;;;;;;;6.53;6.07;;;;;;;;;;5043850;28;20049;-63
2022/07/07 02:13:49;;;;;;;6.88;6.38;;;;;;;;;;5043390;28;20431;-64
2022/07/07 02:16:17;;;;;;;6.03;5.63;;;;;;;;;;5043206;28;20032;-64
2022/07/07 02:18:44;;;;;;;6.60;6.13;;;;;;;;;;5042362;28;20457;-64
2022/07/07 02:21:11;;;;;;;6.93;6.43;;;;;;;;;;5042920;28;20492;-64
2022/07/07 02:23:37;;;;;;;7.25;6.75;;;;;;;;;;5042912;28;20033;-64
2022/07/07 02:26:03;;;;;;;6.75;6.25;;;;;;;;;;5042886;28;20036;-64
2022/07/07 02:28:29;;;;;;;8.10;7.60;;;;;;;;;;5043143;28;20060;-64
2022/07/07 02:30:55;;;;;;;6.60;6.13;;;;;;;;;;5043777;28;20032;-64
2022/07/07 02:33:22;;;;;;;6.13;5.72;;;;;;;;;;5043034;28;20056;-64
2022/07/07 02:35:48;;;;;;;7.25;6.75;;;;;;;;;;5041600;28;20112;-65
2022/07/07 02:38:14;;;;;;;7.70;7.20;;;;;;;;;;5043171;28;20094;-64
2022/07/07 02:40:41;;;;;;;7.28;6.78;;;;;;;;;;5042559;28;20049;-64
2022/07/07 02:43:07;;;;;;;5.78;5.38;;;;;;;;;;5040372;28;20098;-65
2022/07/07 02:45:32;;;;;;;6.65;6.18;;;;;;;;;;5042930;28;20037;-64
2022/07/07 02:47:58;;;;;;;7.22;6.72;;;;;;;;;;5043638;28;20459;-65
2022/07/07 02:50:23;;;;;;;7.15;6.65;;;;;;;;;;5042945;28;20029;-65
2022/07/07 02:52:49;;;;;;;6.47;5.97;;;;;;;;;;5042697;28;20032;-64
2022/07/07 02:55:14;;;;;;;7.03;6.53;;;;;;;;;;5043359;28;20094;-64
2022/07/07 02:57:39;;;;;;;7.30;6.80;;;;;;;;;;5043384;28;22593;-65
2022/07/07 03:00:09;;;;;;;7.00;6.50;;;;;;;;;;5042541;28;20033;-64
2022/07/07 03:02:35;;;;;;;7.22;6.72;;;;;;;;;;5052370;28;20117;-64
2022/07/07 03:05:00;;;;;;;6.68;6.18;;;;;;;;;;5044603;28;20495;-64
2022/07/07 03:07:26;;;;;;;6.30;5.90;;;;;;;;;;5046557;28;20037;-65
2022/07/07 03:09:51;;;;;;;6.93;6.43;;;;;;;;;;5047703;28;20025;-65
2022/07/07 03:12:17;;;;;;;6.90;6.40;;;;;;;;;;5047458;28;20237;-65
2022/07/07 03:14:42;;;;;;;7.15;6.65;;;;;;;;;;5047138;28;20031;-64
2022/07/07 03:17:07;;;;;;;6.45;5.95;;;;;;;;;;5047690;28;20028;-64
2022/07/07 03:19:34;;;;;;;7.05;6.55;;;;;;;;;;5046378;28;20041;-65
2022/07/07 03:22:03;;;;;;;7.63;7.13;;;;;;;;;;5046882;28;20058;-65
2022/07/07 03:24:29;;;;;;;6.32;5.70;;;;;;;;;;5044499;28;20048;-65
2022/07/07 03:26:55;;;;;;;7.55;7.05;;;;;;;;;;5047296;28;20107;-65
2022/07/07 03:29:21;;;;;;;7.32;6.63;;;;;;;;;;5047545;28;20135;-65
2022/07/07 03:31:46;;;;;;;6.65;6.18;;;;;;;;;;5047172;28;20036;-64
2022/07/07 03:34:12;;;;;;;6.82;6.32;;;;;;;;;;5041221;28;20078;-63
2022/07/07 03:36:38;;;;;;;6.80;6.30;;;;;;;;;;5046235;28;20037;-64
2022/07/07 03:39:03;;;;;;;7.88;7.28;;;;;;;;;;5046002;28;20040;-64
2022/07/07 03:41:28;;;;;;;7.32;6.82;;;;;;;;;;5045834;28;20094;-63
2022/07/07 03:43:54;;;;;;;7.07;6.57;;;;;;;;;;5045623;28;20032;-64
2022/07/07 03:46:19;;;;;;;8.45;7.65;;;;;;;;;;5043290;28;20048;-63
2022/07/07 03:48:44;;;;;;;7.05;6.55;;;;;;;;;;5047498;28;20688;-63
2022/07/07 03:51:10;;;;;;;6.90;6.40;;;;;;;;;;5047583;28;20029;-64
2022/07/07 03:53:35;;;;;;;6.90;6.40;;;;;;;;;;5044375;28;20033;-62
2022/07/07 03:56:00;;;;;;;6.25;5.85;;;;;;;;;;5045303;28;20033;-63
2022/07/07 03:58:26;;;;;;;8.10;7.32;;;;;;;;;;5042927;28;20585;-64
2022/07/07 04:00:51;;;;;;;7.20;6.68;;;;;;;;;;5046159;28;20089;-63
2022/07/07 04:03:17;;;;;;;6.95;6.45;;;;;;;;;;5046686;28;20028;-63
2022/07/07 04:05:42;;;;;;;6.88;6.38;;;;;;;;;;5045358;28;20620;-62
2022/07/07 04:08:07;;;;;;;7.30;6.80;;;;;;;;;;5046177;28;20025;-63
2022/07/07 04:10:33;;;;;;;6.15;5.75;;;;;;;;;;5047296;28;20033;-62
2022/07/07 04:12:58;;;;;;;7.10;6.60;;;;;;;;;;5046140;28;20021;-62
2022/07/07 04:15:23;;;;;;;7.72;7.22;;;;;;;;;;5044401;28;20138;-62
2022/07/07 04:17:49;;;;;;;6.88;6.38;;;;;;;;;;5046109;28;20028;-62
2022/07/07 04:20:14;;;;;;;7.68;7.07;;;;;;;;;;5046316;28;20020;-62
2022/07/07 04:22:40;;;;;;;6.90;6.40;;;;;;;;;;5041914;28;20044;-61
2022/07/07 04:25:06;;;;;;;7.47;6.97;;;;;;;;;;5044605;28;20165;-62
2022/07/07 04:27:31;;;;;;;7.60;7.00;;;;;;;;;;5044181;28;20354;-62
2022/07/07 04:29:56;;;;;;;8.10;7.50;;;;;;;;;;5044221;28;20040;-62
2022/07/07 04:32:22;;;;;;;7.35;6.85;;;;;;;;;;5043618;28;20451;-61
2022/07/07 04:34:47;;;;;;;7.60;7.10;;;;;;;;;;5045790;28;20021;-62
2022/07/07 04:37:12;;;;;;;7.38;6.88;;;;;;;;;;5044754;28;20527;-62
2022/07/07 04:39:38;;;;;;;7.45;6.90;;;;;;;;;;5045047;28;20044;-61
2022/07/07 04:42:04;;;;;;;7.32;6.82;;;;;;;;;;5044509;28;20071;-61
2022/07/07 04:44:30;;;;;;;7.05;6.55;;;;;;;;;;5045123;28;20017;-61
2022/07/07 04:46:55;;;;;;;7.55;7.05;;;;;;;;;;5044456;28;20537;-61
2022/07/07 04:49:21;;;;;;;8.43;7.82;;;;;;;;;;5044883;28;20040;-61
2022/07/07 04:51:47;;;;;;;7.97;7.47;;;;;;;;;;5044641;28;20470;-60
2022/07/07 04:54:12;;;;;;;7.45;6.95;;;;;;;;;;5044011;28;20032;-60
2022/07/07 04:56:38;;;;;;;7.30;6.80;;;;;;;;;;5044376;28;20105;-61
2022/07/07 04:59:03;;;;;;;7.65;7.07;;;;;;;;;;5044953;28;20037;-61
2022/07/07 05:01:28;;;;;;;7.97;7.47;;;;;;;;;;5044505;28;20677;-61
2022/07/07 05:03:54;;;;;;;8.18;7.68;;;;;;;;;;5044552;28;20455;-61
2022/07/07 05:06:19;;;;;;;8.13;7.53;;;;;;;;;;5044604;28;20526;-61
2022/07/07 05:08:44;;;;;;;8.93;8.32;;;;;;;;;;5045222;28;20067;-61
2022/07/07 05:11:10;;;;;;;7.63;7.13;;;;;;;;;;5044817;28;20055;-61
2022/07/07 05:13:35;;;;;;;8.50;7.80;;;;;;;;;;5044669;28;20021;-62
2022/07/07 05:16:00;;;;;;;8.80;8.23;;;;;;;;;;5044465;28;20021;-61
2022/07/07 05:18:26;;;;;;;8.50;8.00;;;;;;;;;;5043092;28;20398;-62
2022/07/07 05:20:51;;;;;;;8.05;7.45;;;;;;;;;;5044903;28;20032;-62
2022/07/07 05:23:17;;;;;;;7.78;7.28;;;;;;;;;;5045000;28;20029;-62
2022/07/07 05:25:42;;;;;;;19.35;8.50;;;;;;;;;;5044823;28;20025;-62
2022/07/07 05:28:07;;;;;;;7.53;7.03;;;;;;;;;;5042561;28;20083;-62
2022/07/07 05:30:33;;;;;;;8.13;7.63;;;;;;;;;;5041019;28;20048;-62
2022/07/07 05:32:58;;;;;;;8.07;7.57;;;;;;;;;;5044039;28;20039;-62
2022/07/07 05:35:23;;;;;;;8.43;7.82;;;;;;;;;;5043619;28;20033;-61
2022/07/07 05:37:49;;;;;;;8.30;7.80;;;;;;;;;;5043631;28;20025;-62
2022/07/07 05:40:14;;;;;;;8.13;7.63;;;;;;;;;;5043751;28;20096;-61
2022/07/07 05:42:39;;;;;;;8.18;7.68;;;;;;;;;;5043420;28;20564;-62
2022/07/07 05:45:05;;;;;;;8.70;8.10;;;;;;;;;;5043686;28;20454;-60
2022/07/07 05:47:31;;;;;;;7.22;6.72;;;;;;;;;;5041806;28;20047;-61
2022/07/07 05:49:57;;;;;;;9.10;8.50;;;;;;;;;;5043358;28;20021;-61
2022/07/07 05:52:22;;;;;;;8.68;8.07;;;;;;;;;;5042240;28;20509;-61
2022/07/07 05:54:48;;;;;;;8.60;8.00;;;;;;;;;;5044105;28;20036;-61
2022/07/07 05:57:14;;;;;;;8.32;7.80;;;;;;;;;;5043934;28;20083;-62
2022/07/07 05:59:40;;;;;;;9.23;8.63;;;;;;;;;;5044165;28;20039;-62
2022/07/07 06:02:05;;;;;;;8.65;8.05;;;;;;;;;;5043859;28;20051;-61
2022/07/07 06:04:31;;;;;;;9.43;8.77;;;;;;;;;;5042897;28;20478;-61
2022/07/07 06:06:56;;;;;;;8.25;7.68;;;;;;;;;;5043758;28;20028;-61
2022/07/07 06:09:23;;;;;;;7.53;7.03;;;;;;;;;;5043550;28;20048;-62
2022/07/07 06:11:49;;;;;;;9.50;8.90;;;;;;;;;;5044543;28;20044;-62
2022/07/07 06:14:14;;;;;;;10.90;10.07;;;;;;;;;;5043557;28;20363;-62
2022/07/07 06:16:41;;;;;;;9.43;8.82;;;;;;;;;;5043453;28;20052;-62
2022/07/07 06:19:11;;;;;;;9.52;8.93;;;;;;;;;;5043477;28;20029;-61
2022/07/07 06:21:39;;;;;;;10.40;9.70;;;;;;;;;;5041780;28;20036;-61
2022/07/07 06:24:05;;;;;;;9.02;8.43;;;;;;;;;;5042589;28;20108;-62
2022/07/07 06:26:31;;;;;;;9.23;8.63;;;;;;;;;;5042669;28;20091;-62
2022/07/07 06:28:56;;;;;;;9.88;9.18;;;;;;;;;;5042458;28;20040;-61
2022/07/07 06:31:22;;;;;;;8.40;7.80;;;;;;;;;;5043027;28;20024;-62
2022/07/07 06:33:47;;;;;;;8.13;7.63;;;;;;;;;;5041718;28;20017;-62
2022/07/07 06:36:13;;;;;;;9.10;8.50;;;;;;;;;;5043580;28;20037;-61
2022/07/07 06:38:38;;;;;;;8.25;7.72;;;;;;;;;;5042978;28;20467;-62
2022/07/07 06:41:04;;;;;;;8.20;7.70;;;;;;;;;;5042928;28;20045;-61
2022/07/07 06:43:29;;;;;;;8.65;8.05;;;;;;;;;;5043312;28;20091;-62
2022/07/07 06:45:54;;;;;;;9.00;8.40;;;;;;;;;;5042242;28;20037;-62
2022/07/07 06:48:20;;;;;;;9.32;8.63;;;;;;;;;;5042646;28;20029;-62
2022/07/07 06:50:45;;;;;;;8.45;7.85;;;;;;;;;;5042833;28;20036;-61
2022/07/07 06:53:11;;;;;;;9.77;9.18;;;;;;;;;;5043032;28;20094;-62
2022/07/07 06:55:37;;;;;;;8.63;8.02;;;;;;;;;;5041818;28;20447;-62
2022/07/07 06:58:02;;;;;;;9.23;8.63;;;;;;;;;;5043280;28;20035;-62
2022/07/07 07:00:28;;;;;;;9.52;8.90;;;;;;;;;;5042936;28;20029;-61
2022/07/07 07:02:54;;;;;;;9.10;8.30;;;;;;;;;;5041940;28;20090;-61
2022/07/07 07:05:20;;;;;;;8.95;8.35;;;;;;;;;;5041887;28;20260;-60
2022/07/07 07:07:45;;;;;;;8.25;7.75;;;;;;;;;;5041939;28;20028;-60
2022/07/07 07:10:11;;;;;;;9.32;8.73;;;;;;;;;;5043453;28;20033;-60
2022/07/07 07:12:36;;;;;;;8.43;7.93;;;;;;;;;;5045481;28;20029;-61
2022/07/07 07:15:02;;;;;;;8.00;7.50;;;;;;;;;;5039219;28;20029;-61
2022/07/07 07:17:28;;;;;;;7.93;7.43;;;;;;;;;;5044693;28;20571;-61
2022/07/07 07:19:53;;;;;;;9.45;8.85;;;;;;;;;;5041800;28;20111;-61
2022/07/07 07:22:19;;;;;;;8.32;7.72;;;;;;;;;;5042321;28;20029;-60
2022/07/07 07:24:44;;;;;;;8.30;7.80;;;;;;;;;;5042371;28;20323;-61
2022/07/07 07:27:09;;;;;;;9.00;8.40;;;;;;;;;;5043698;28;20407;-61
2022/07/07 07:29:35;;;;;;;8.77;8.20;;;;;;;;;;5042251;28;20425;-61
2022/07/07 07:32:00;;;;;;;8.75;8.20;;;;;;;;;;5042190;28;20036;-61
2022/07/07 07:34:26;;;;;;;9.50;8.90;;;;;;;;;;5042455;28;20398;-61
2022/07/07 07:36:51;;;;;;;10.25;9.43;;;;;;;;;;5040629;28;20462;-60
2022/07/07 07:39:17;;;;;;;8.15;7.65;;;;;;;;;;5041521;28;20620;-61
2022/07/07 07:41:43;;;;;;;10.32;9.63;;;;;;;;;;5041420;28;20554;-61
2022/07/07 07:44:09;;;;;;;8.80;8.20;;;;;;;;;;5043332;28;20033;-62
2022/07/07 07:46:35;;;;;;;8.88;8.27;;;;;;;;;;5043317;28;20060;-62
2022/07/07 07:49:05;;;;;;;10.38;9.77;;;;;;;;;;5042401;28;20083;-61
2022/07/07 07:51:31;;;;;;;9.93;9.13;;;;;;;;;;5043440;28;20135;-62
2022/07/07 07:53:56;;;;;;;9.15;8.55;;;;;;;;;;5046697;28;20256;-62
2022/07/07 07:56:22;;;;;;;8.18;7.68;;;;;;;;;;5046779;28;20102;-63
2022/07/07 07:58:47;;;;;;;8.27;7.70;;;;;;;;;;5047292;28;20060;-62
2022/07/07 08:01:13;;;;;;;8.95;8.35;;;;;;;;;;5046347;28;20048;-62
2022/07/07 08:03:38;;;;;;;8.98;8.38;;;;;;;;;;5045466;28;20029;-62
2022/07/07 08:06:03;;;;;;;9.38;8.68;;;;;;;;;;5045674;28;20044;-61
2022/07/07 08:08:29;;;;;;;9.38;8.77;;;;;;;;;;5047357;28;20035;-61
2022/07/07 08:10:54;;;;;;;8.25;7.68;;;;;;;;;;5045880;28;20382;-61
2022/07/07 08:13:19;;;;;;;8.98;8.38;;;;;;;;;;5043241;28;20035;-61
2022/07/07 08:15:45;;;;;;;8.73;8.20;;;;;;;;;;5046667;28;20021;-61
2022/07/07 08:18:10;;;;;;;9.23;8.63;;;;;;;;;;5047031;28;20044;-61
2022/07/07 08:20:36;;;;;;;9.23;8.63;;;;;;;;;;5043238;28;20389;-60
2022/07/07 08:23:01;;;;;;;9.43;8.82;;;;;;;;;;5044817;28;20594;-60
2022/07/07 08:25:27;;;;;;;9.65;9.05;;;;;;;;;;5044647;28;20055;-60
2022/07/07 08:27:52;;;;;;;9.82;9.23;;;;;;;;;;5045672;28;20036;-60
2022/07/07 08:30:17;;;;;;;8.98;8.38;;;;;;;;;;5045042;28;20094;-62
2022/07/07 08:32:45;;;;;;;10.10;9.40;;;;;;;;;;5044545;28;20083;-61
2022/07/07 08:35:10;;;;;;;9.38;8.77;;;;;;;;;;5043745;28;20036;-61
2022/07/07 08:37:36;;;;;;;11.88;11.07;;;;;;;;;;5044527;28;20025;-61
2022/07/07 08:40:01;;;;;;;9.45;8.85;;;;;;;;;;5044432;28;20493;-61
2022/07/07 08:42:27;;;;;;;9.80;9.10;;;;;;;;;;5045157;28;20520;-61
2022/07/07 08:44:52;;;;;;;9.75;9.15;;;;;;;;;;5044692;28;20029;-61
2022/07/07 08:47:18;;;;;;;10.10;9.50;;;;;;;;;;5045458;28;20036;-61
2022/07/07 08:49:43;;;;;;;10.18;9.57;;;;;;;;;;5045356;28;20502;-61
2022/07/07 08:52:08;;;;;;;9.52;8.93;;;;;;;;;;5044567;28;20115;-62
2022/07/07 08:54:37;;;;;;;10.77;9.98;;;;;;;;;;5045848;28;20036;-61
2022/07/07 08:57:03;;;;;;;10.50;9.90;;;;;;;;;;5044453;28;20064;-61
2022/07/07 08:59:28;;;;;;;10.32;9.73;;;;;;;;;;5044190;28;20454;-60
2022/07/07 09:01:56;;;;;;;11.85;11.15;;;;;;;;;;5045244;28;20581;-62
2022/07/07 09:04:21;;;;;;;11.50;10.80;;;;;;;;;;5044429;28;20025;-61
2022/07/07 09:06:59;;;;;;;12.15;11.45;;;;;;;;;;5044253;28;20036;-61
2022/07/07 09:09:44;;;;;;;11.93;11.23;;;;;;;;;;5043684;28;20116;-62
2022/07/07 09:12:15;;;;;;;11.57;10.77;;;;;;;;;;5041248;28;20091;-61
2022/07/07 09:14:43;;;;;;;11.57;10.88;;;;;;;;;;5044438;28;20029;-61
2022/07/07 09:17:29;;;;;;;10.52;9.88;;;;;;;;;;5043650;28;20188;-62
2022/07/07 09:20:13;;;;;;;11.45;10.75;;;;;;;;;;5042769;28;20024;-62
2022/07/07 09:22:53;;;;;;;11.90;11.20;;;;;;;;;;5045374;28;20052;-62
2022/07/07 09:25:24;;;;;;;11.40;10.70;;;;;;;;;;5044118;28;20063;-61
2022/07/07 09:28:04;;;;;;;13.25;12.45;;;;;;;;;;5044347;28;20040;-61
2022/07/07 09:30:37;;;;;;;12.83;12.07;;;;;;;;;;5043162;28;20040;-62
2022/07/07 09:33:06;;;;;;;10.95;10.23;;;;;;;;;;5043987;28;20353;-60
2022/07/07 09:38:18;;;;;;;11.95;11.25;;;;;;;;;;5043465;28;20033;-61
2022/07/07 09:40:58;;;;;;;12.50;11.75;;;;;;;;;;5043885;28;20033;-62
2022/07/07 09:43:23;;;;;;;11.23;10.52;;;;;;;;;;5043130;28;20029;-66
2022/07/07 09:46:07;;;;;;;10.88;10.23;;;;;;;;;;5042863;28;20048;-68
2022/07/07 09:48:34;;;;;;;10.38;9.75;;;;;;;;;;5043025;28;20033;-70
2022/07/07 09:51:32;;;;;;;11.38;10.68;;;;;;;;;;5044225;28;20048;-72
2022/07/07 09:54:08;;;;;;;11.52;10.82;;;;;;;;;;5029508;28;20041;-72
2022/07/07 09:56:38;;;;;;;12.07;11.38;;;;;;;;;;5042320;28;20020;-72
2022/07/07 09:59:06;;;;;;;11.80;11.10;;;;;;;;;;5043839;28;20576;-72
2022/07/07 10:01:38;;;;;;;11.38;10.68;;;;;;;;;;5043651;28;20414;-74
2022/07/07 10:04:13;;;;;;;10.30;9.68;;;;;;;;;;5043314;28;20033;-72
2022/07/07 10:06:40;;;;;;;16.15;15.25;;;;;;;;;;5043076;28;20047;-73
2022/07/07 10:09:11;;;;;;;13.23;12.45;;;;;;;;;;5043864;28;20088;-69
2022/07/07 10:11:39;;;;;;;10.23;9.60;;;;;;;;;;5039975;28;20040;-73
2022/07/07 10:14:13;;;;;;;11.95;11.25;;;;;;;;;;5044275;28;20108;-68
2022/07/07 10:16:39;;;;;;;9.27;8.68;;;;;;;;;;5042358;28;20033;-71
2022/07/07 10:19:05;;;;;;;9.60;9.00;;;;;;;;;;5042069;28;20044;-74
2022/07/07 10:21:31;;;;;;;9.95;9.35;;;;;;;;;;5042469;28;20033;-75
2022/07/07 10:23:57;;;;;;;12.10;11.40;;;;;;;;;;5043688;28;20060;-69
2022/07/07 10:26:36;;;;;;;11.68;10.98;;;;;;;;;;5044377;28;20446;-74
2022/07/07 10:29:02;;;;;;;12.73;12.02;;;;;;;;;;5042343;28;20044;-73
2022/07/07 10:31:28;;;;;;;12.30;11.60;;;;;;;;;;5042140;28;20491;-73
2022/07/07 10:34:06;;;;;;;12.00;11.30;;;;;;;;;;5040880;28;20051;-69
2022/07/07 10:36:50;;;;;;;14.85;14.05;;;;;;;;;;5043661;28;20039;-69
2022/07/07 10:39:22;;;;;;;14.75;13.95;;;;;;;;;;5042435;28;20039;-71
2022/07/07 10:42:26;;;;;;;21.08;19.98;;;;;;;;;;5034124;28;20024;-71
2022/07/07 10:44:53;;;;;;;18.25;17.25;;;;;;;;;;5043844;28;20049;-70
2022/07/07 10:47:19;;;;;;;17.73;16.73;;;;;;;;;;5042042;28;20402;-71
2022/07/07 10:49:53;;;;;;;18.40;17.38;;;;;;;;;;5042563;28;20029;-70
2022/07/07 10:52:21;;;;;;;17.40;16.42;;;;;;;;;;5040686;28;20037;-69
2022/07/07 10:54:52;;;;;;;13.73;12.93;;;;;;;;;;5042200;28;20159;-66
2022/07/07 10:57:20;;;;;;;12.38;11.68;;;;;;;;;;5042380;28;20017;-67
2022/07/07 11:00:03;;;;;;;10.27;9.68;;;;;;;;;;5040987;28;20175;-66
2022/07/07 11:02:39;;;;;;;10.95;10.25;;;;;;;;;;5042519;28;20057;-67
2022/07/07 11:05:14;;;;;;;11.73;10.88;;;;;;;;;;5042660;28;20119;-64
2022/07/07 11:07:59;;;;;;;11.63;10.93;;;;;;;;;;5042009;28;20462;-65
2022/07/07 11:10:46;;;;;;;12.40;11.70;;;;;;;;;;5028526;28;20126;-66
2022/07/07 11:13:31;;;;;;;12.40;11.70;;;;;;;;;;5041956;28;20123;-64
2022/07/07 11:16:12;;;;;;;12.40;11.70;;;;;;;;;;5043743;28;20466;-68
2022/07/07 11:18:38;;;;;;;10.50;9.90;;;;;;;;;;5043534;28;20194;-68
2022/07/07 11:21:05;;;;;;;10.93;10.23;;;;;;;;;;5044875;28;20115;-67
2022/07/07 11:23:54;;;;;;;12.68;11.98;;;;;;;;;;5042971;28;20040;-68
2022/07/07 11:26:23;;;;;;;13.65;12.85;;;;;;;;;;5045911;28;20368;-68
2022/07/07 11:28:50;;;;;;;13.75;12.95;;;;;;;;;;5046560;28;20067;-67
2022/07/07 11:31:15;;;;;;;12.40;11.70;;;;;;;;;;5044612;28;20529;-67
2022/07/07 11:33:41;;;;;;;14.07;13.27;;;;;;;;;;5047638;28;20028;-66
2022/07/07 11:36:15;;;;;;;18.23;17.23;;;;;;;;;;5046850;28;20032;-66
2022/07/07 11:38:42;;;;;;;21.60;20.45;;;;;;;;;;5047174;28;20029;-66
2022/07/07 11:41:08;;;;;;;28.42;26.92;;;;;;;;;;5045841;28;20129;-68
2022/07/07 11:43:33;;;;;;;30.10;28.50;;;;;;;;;;5046828;28;20144;-68
2022/07/07 11:45:59;;;;;;;30.27;28.67;;;;;;;;;;5043297;28;20438;-70
2022/07/07 11:48:35;;;;;;;28.65;27.15;;;;;;;;;;5044774;28;20086;-68
2022/07/07 11:51:01;;;;;;;27.83;26.35;;;;;;;;;;5046746;28;20531;-70
2022/07/07 11:53:26;;;;;;;31.25;29.65;;;;;;;;;;5046342;28;20033;-69
2022/07/07 11:55:52;;;;;;;29.27;27.73;;;;;;;;;;5045500;28;20351;-68
2022/07/07 11:58:17;;;;;;;31.17;29.58;;;;;;;;;;5045863;28;20055;-68
2022/07/07 12:00:42;;;;;;;28.15;26.65;;;;;;;;;;5045446;28;20095;-69
2022/07/07 12:03:08;;;;;;;28.45;26.95;;;;;;;;;;5044304;28;20098;-66
2022/07/07 12:05:37;;;;;;;30.30;28.70;;;;;;;;;;5045887;28;20114;-66
2022/07/07 12:08:09;;;;;;;28.83;27.33;;;;;;;;;;5044462;28;20226;-65
2022/07/07 12:10:37;;;;;;;26.38;24.98;;;;;;;;;;5044358;28;20040;-66
2022/07/07 12:13:07;;;;;;;29.45;27.95;;;;;;;;;;5042647;28;20758;-65
2022/07/07 12:15:36;;;;;;;29.42;27.88;;;;;;;;;;5043556;28;20098;-65
2022/07/07 12:18:03;;;;;;;30.75;29.15;;;;;;;;;;5046064;28;20091;-68
2022/07/07 12:20:29;;;;;;;35.13;33.33;;;;;;;;;;5043850;28;20032;-67
2022/07/07 12:22:56;;;;;;;38.00;36.05;;;;;;;;;;5046114;28;20033;-68
2022/07/07 12:25:30;;;;;;;41.38;39.28;;;;;;;;;;5046278;28;20021;-69
2022/07/07 12:28:05;;;;;;;40.05;38.00;;;;;;;;;;5042761;28;20043;-69
2022/07/07 12:30:33;;;;;;;42.22;40.05;;;;;;;;;;5046159;28;20036;-67
2022/07/07 12:32:59;;;;;;;35.40;33.60;;;;;;;;;;5046059;28;20043;-67
2022/07/07 12:35:28;;;;;;;35.08;33.28;;;;;;;;;;5045488;28;20033;-66
2022/07/07 12:37:54;;;;;;;34.72;32.92;;;;;;;;;;5044303;28;20110;-67
2022/07/07 12:40:19;;;;;;;34.13;32.38;;;;;;;;;;5045179;28;20036;-67
2022/07/07 12:42:45;;;;;;;31.83;30.23;;;;;;;;;;5045613;28;20071;-67
2022/07/07 12:45:17;;;;;;;33.28;31.58;;;;;;;;;;5045018;28;20032;-67
2022/07/07 12:47:54;;;;;;;30.92;29.33;;;;;;;;;;5044907;28;20479;-66
2022/07/07 12:50:24;;;;;;;29.42;27.92;;;;;;;;;;5043541;28;20029;-66
2022/07/07 12:52:58;;;;;;;27.02;25.55;;;;;;;;;;5044936;28;20033;-66
2022/07/07 12:55:33;;;;;;;26.83;25.42;;;;;;;;;;5044419;28;20036;-66
2022/07/07 12:58:22;;;;;;;31.67;29.98;;;;;;;;;;5033648;28;20067;-65
2022/07/07 13:01:02;;;;;;;30.55;28.95;;;;;;;;;;5044081;28;20117;-66
2022/07/07 13:03:28;;;;;;;28.55;27.02;;;;;;;;;;5043132;28;20060;-65
2022/07/07 13:05:55;;;;;;;26.83;25.42;;;;;;;;;;5044800;28;20785;-66
2022/07/07 13:08:20;;;;;;;26.48;25.08;;;;;;;;;;5041889;28;20401;-65
2022/07/07 13:10:46;;;;;;;28.08;26.58;;;;;;;;;;5044105;28;20047;-65
2022/07/07 13:13:11;;;;;;;37.80;35.83;;;;;;;;;;5044122;28;20450;-64
2022/07/07 13:15:36;;;;;;;37.92;35.97;;;;;;;;;;5043986;28;20040;-64
2022/07/07 13:18:02;;;;;;;39.35;37.35;;;;;;;;;;5040849;28;20407;-64
2022/07/07 13:20:27;;;;;;;37.83;35.92;;;;;;;;;;5042442;28;20428;-64
2022/07/07 13:22:53;;;;;;;36.92;35.03;;;;;;;;;;5042646;28;20033;-66
2022/07/07 13:25:18;;;;;;;36.95;35.08;;;;;;;;;;5041856;28;20198;-63
2022/07/07 13:27:43;;;;;;;32.92;31.23;;;;;;;;;;5044208;28;20028;-64
2022/07/07 13:30:09;;;;;;;28.58;27.08;;;;;;;;;;5044306;28;20459;-65
2022/07/07 13:32:34;;;;;;;26.55;25.15;;;;;;;;;;5042244;28;20032;-65
2022/07/07 13:35:00;;;;;;;25.58;24.23;;;;;;;;;;5043510;28;20040;-62
2022/07/07 13:37:26;;;;;;;19.13;18.10;;;;;;;;;;5041678;28;20087;-66
2022/07/07 13:39:51;;;;;;;18.55;17.55;;;;;;;;;;5041938;28;20519;-65
2022/07/07 13:42:17;;;;;;;21.50;20.35;;;;;;;;;;5043485;28;20028;-64
2022/07/07 13:44:43;;;;;;;20.33;19.23;;;;;;;;;;5043845;28;20082;-63
2022/07/07 13:47:09;;;;;;;18.67;17.63;;;;;;;;;;5041255;28;20037;-63
2022/07/07 13:49:35;;;;;;;18.77;17.75;;;;;;;;;;5041028;28;20083;-64
2022/07/07 13:52:01;;;;;;;18.85;17.83;;;;;;;;;;5043792;28;20471;-63
2022/07/07 13:54:29;;;;;;;18.67;17.67;;;;;;;;;;5041328;28;20093;-64
2022/07/07 13:56:55;;;;;;;16.60;15.70;;;;;;;;;;5042782;28;20017;-63
2022/07/07 13:59:20;;;;;;;18.23;17.23;;;;;;;;;;5042288;28;20324;-63
2022/07/07 14:01:46;;;;;;;22.23;21.02;;;;;;;;;;5042821;28;20451;-62
2022/07/07 14:04:11;;;;;;;22.92;21.70;;;;;;;;;;5042514;28;20056;-63
2022/07/07 14:06:36;;;;;;;30.00;28.42;;;;;;;;;;5042456;28;20082;-63
2022/07/07 14:09:02;;;;;;;30.23;28.35;;;;;;;;;;5043693;28;20024;-62
2022/07/07 14:11:28;;;;;;;32.65;30.95;;;;;;;;;;5041817;28;20086;-62
2022/07/07 14:13:53;;;;;;;35.28;33.47;;;;;;;;;;5042573;28;20443;-63
2022/07/07 14:16:18;;;;;;;39.83;37.83;;;;;;;;;;5041433;28;20471;-63
2022/07/07 14:18:44;;;;;;;35.50;33.70;;;;;;;;;;5041747;28;20029;-62
2022/07/07 14:21:09;;;;;;;36.17;34.33;;;;;;;;;;5042779;28;20804;-62
2022/07/07 14:23:34;;;;;;;39.08;37.08;;;;;;;;;;5042921;28;20378;-62
2022/07/07 14:26:00;;;;;;;34.10;32.33;;;;;;;;;;5042335;28;20064;-62
2022/07/07 14:28:25;;;;;;;32.28;30.63;;;;;;;;;;5041533;28;20402;-63
2022/07/07 14:30:50;;;;;;;35.85;33.78;;;;;;;;;;5041849;28;20481;-62
2022/07/07 14:33:16;;;;;;;28.63;27.13;;;;;;;;;;5042734;28;20542;-63
2022/07/07 14:35:41;;;;;;;29.55;28.02;;;;;;;;;;5040310;28;20029;-63
2022/07/07 14:38:07;;;;;;;26.38;24.98;;;;;;;;;;5041745;28;20442;-63